createdAt,value
2018-02-17T00:01:39.805Z,85.40
2018-02-17T00:04:07.302Z,93.67
2018-02-17T00:06:34.830Z,122.87
2018-02-17T00:09:02.272Z,58.70
2018-02-17T00:11:30.545Z,114.87
2018-02-17T00:13:58.027Z,128.73
2018-02-17T00:16:26.274Z,110.53
2018-02-17T00:18:53.767Z,95.10
2018-02-17T00:21:22.009Z,82.27
2018-02-17T00:23:49.562Z,97.07
2018-02-17T00:26:17.778Z,78.77
2018-02-17T00:28:45.264Z,91.77
2018-02-17T00:31:12.739Z,72.13
2018-02-17T00:33:40.239Z,88.27
2018-02-17T00:36:09.691Z,99.57
2018-02-17T00:38:37.235Z,120.83
2018-02-17T00:41:05.510Z,114.67
2018-02-17T00:43:34.038Z,64.13
2018-02-17T00:46:01.524Z,79.80
2018-02-17T00:48:29.117Z,66.83
2018-02-17T00:50:57.366Z,114.67
2018-02-17T00:53:24.846Z,96.30
2018-02-17T00:55:53.103Z,80.90
2018-02-17T00:58:20.583Z,87.37
2018-02-17T01:00:48.726Z,114.00
2018-02-17T01:03:16.221Z,116.80
2018-02-17T01:05:44.499Z,97.53
2018-02-17T01:08:12.774Z,104.80
2018-02-17T01:10:41.027Z,71.20
2018-02-17T01:13:08.510Z,216.57
2018-02-17T01:15:36.758Z,65.93
2018-02-17T01:18:04.247Z,49.93
2018-02-17T01:20:31.731Z,103.93
2018-02-17T01:22:59.210Z,172.83
2018-02-17T01:25:26.707Z,132.10
2018-02-17T01:27:54.214Z,131.43
2018-02-17T01:30:21.699Z,69.07
2018-02-17T01:32:49.199Z,138.80
2018-02-17T01:35:16.677Z,81.63
2018-02-17T01:37:44.926Z,131.67
2018-02-17T01:40:12.503Z,102.23
2018-02-17T01:42:40.753Z,183.87
2018-02-17T01:45:08.232Z,151.03
2018-02-17T01:47:35.799Z,119.40
2018-02-17T01:50:04.059Z,133.80
2018-02-17T01:52:31.543Z,90.43
2018-02-17T01:54:59.806Z,104.33
2018-02-17T01:57:28.051Z,72.13
2018-02-17T01:59:55.532Z,147.07
2018-02-17T02:02:23.039Z,152.27
2018-02-17T02:04:50.572Z,137.23
2018-02-17T02:07:18.820Z,85.13
2018-02-17T02:09:47.078Z,86.03
2018-02-17T02:12:14.550Z,69.70
2018-02-17T02:14:42.023Z,169.63
2018-02-17T02:17:09.522Z,48.83
2018-02-17T02:19:36.993Z,35.80
2018-02-17T02:22:04.480Z,84.80
2018-02-17T02:24:31.976Z,44.53
2018-02-17T02:27:00.250Z,51.90
2018-02-17T02:29:28.491Z,58.30
2018-02-17T02:31:56.092Z,68.47
2018-02-17T02:34:24.346Z,77.67
2018-02-17T02:36:51.846Z,74.23
2018-02-17T02:39:19.336Z,35.03
2018-02-17T02:41:46.870Z,46.47
2018-02-17T02:44:14.355Z,57.27
2018-02-17T02:46:41.845Z,92.13
2018-02-17T02:49:10.100Z,85.13
2018-02-17T02:51:37.599Z,37.73
2018-02-17T02:54:05.864Z,51.50
2018-02-17T02:56:34.115Z,51.57
2018-02-17T02:59:01.594Z,41.40
2018-02-17T03:01:29.172Z,72.80
2018-02-17T03:03:57.431Z,52.67
2018-02-17T03:06:25.801Z,45.60
2018-02-17T03:08:53.299Z,38.40
2018-02-17T03:11:20.774Z,46.07
2018-02-17T03:13:48.256Z,73.93
2018-02-17T03:16:15.755Z,104.33
2018-02-17T03:18:44.004Z,40.33
2018-02-17T03:21:12.302Z,42.93
2018-02-17T03:23:40.563Z,55.10
2018-02-17T03:26:08.040Z,38.73
2018-02-17T03:28:36.284Z,44.07
2018-02-17T03:31:03.883Z,57.60
2018-02-17T03:33:32.122Z,71.07
2018-02-17T03:35:59.710Z,123.20
2018-02-17T03:38:27.980Z,79.40
2018-02-17T03:40:55.559Z,63.17
2018-02-17T03:43:23.811Z,40.60
2018-02-17T03:45:51.390Z,105.80
2018-02-17T03:48:19.657Z,79.37
2018-02-17T03:50:47.928Z,85.03
2018-02-17T03:53:15.431Z,57.40
2018-02-17T03:55:42.916Z,77.70
2018-02-17T03:58:10.393Z,86.70
2018-02-17T04:00:37.887Z,68.50
2018-02-17T04:03:05.386Z,146.27
2018-02-17T04:05:32.889Z,83.57
2018-02-17T04:08:01.152Z,62.03
2018-02-17T04:10:28.643Z,101.60
2018-02-17T04:12:56.126Z,92.87
2018-02-17T04:15:23.618Z,62.87
2018-02-17T04:17:52.626Z,39.00
2018-02-17T04:20:20.871Z,45.33
2018-02-17T04:22:48.371Z,86.83
2018-02-17T04:25:15.863Z,77.00
2018-02-17T04:27:43.355Z,35.23
2018-02-17T04:30:11.620Z,48.93
2018-02-17T04:32:39.111Z,148.27
2018-02-17T04:35:07.363Z,81.00
2018-02-17T04:37:34.859Z,30.93
2018-02-17T04:53:32.387Z,49.13
2018-02-17T04:55:59.893Z,30.00
2018-02-17T04:58:31.072Z,32.40
2018-02-17T05:14:24.726Z,57.10
2018-02-17T05:16:55.656Z,63.73
2018-02-17T05:19:24.706Z,52.63
2018-02-17T05:22:04.805Z,65.87
2018-02-17T05:37:57.776Z,42.17
2018-02-17T05:53:45.705Z,56.00
2018-02-17T05:56:13.983Z,36.93
2018-02-17T05:58:42.254Z,52.00
2018-02-17T06:01:09.752Z,41.40
2018-02-17T06:03:37.292Z,30.40
2018-02-17T06:06:05.539Z,30.03
2018-02-17T06:08:33.102Z,41.30
2018-02-17T06:11:00.574Z,44.90
2018-02-17T06:13:28.830Z,51.03
2018-02-17T06:15:56.415Z,31.67
2018-02-17T06:18:24.675Z,63.03
2018-02-17T06:20:52.159Z,36.10
2018-02-17T06:23:19.654Z,27.97
2018-02-17T06:25:47.138Z,25.07
2018-02-17T06:28:14.721Z,26.50
2018-02-17T06:30:42.982Z,23.83
2018-02-17T06:33:10.471Z,47.10
2018-02-17T06:35:38.019Z,33.73
2018-02-17T06:38:06.293Z,29.60
2018-02-17T06:40:34.566Z,30.53
2018-02-17T06:43:02.812Z,22.47
2018-02-17T06:45:30.401Z,24.87
2018-02-17T06:47:58.682Z,25.13
2018-02-17T06:50:26.967Z,26.27
2018-02-17T06:52:55.230Z,31.23
2018-02-17T06:55:23.483Z,26.30
2018-02-17T06:57:51.722Z,30.93
2018-02-17T07:00:19.218Z,73.73
2018-02-17T07:02:46.703Z,42.33
2018-02-17T07:05:14.952Z,25.50
2018-02-17T07:07:42.443Z,19.83
2018-02-17T07:10:09.919Z,38.23
2018-02-17T07:12:37.404Z,25.80
2018-02-17T07:15:04.897Z,28.03
2018-02-17T07:17:32.391Z,26.17
2018-02-17T07:19:59.871Z,27.43
2018-02-17T07:22:27.358Z,23.40
2018-02-17T07:24:54.834Z,22.47
2018-02-17T07:27:23.094Z,30.30
2018-02-17T07:29:50.578Z,25.23
2018-02-17T07:32:18.823Z,26.93
2018-02-17T07:34:46.316Z,27.97
2018-02-17T07:37:14.574Z,30.73
2018-02-17T07:39:42.061Z,32.40
2018-02-17T07:42:09.556Z,26.30
2018-02-17T07:44:37.151Z,22.30
2018-02-17T07:47:06.167Z,26.87
2018-02-17T07:49:34.410Z,26.03
2018-02-17T07:52:01.895Z,22.03
2018-02-17T07:54:30.141Z,26.03
2018-02-17T07:56:57.619Z,27.00
2018-02-17T07:59:25.880Z,25.10
2018-02-17T08:01:53.358Z,28.07
2018-02-17T08:04:21.610Z,23.73
2018-02-17T08:06:49.103Z,27.00
2018-02-17T08:09:16.651Z,24.70
2018-02-17T08:11:44.892Z,19.23
2018-02-17T08:14:12.383Z,20.83
2018-02-17T08:16:40.631Z,20.30
2018-02-17T08:19:08.108Z,18.40
2018-02-17T08:21:36.394Z,18.00
2018-02-17T08:24:04.638Z,16.23
2018-02-17T08:26:32.123Z,18.47
2018-02-17T08:28:59.616Z,18.17
2018-02-17T08:31:27.122Z,20.50
2018-02-17T08:33:54.711Z,17.37
2018-02-17T08:36:22.999Z,16.77
2018-02-17T08:38:51.267Z,21.00
2018-02-17T08:41:19.511Z,19.30
2018-02-17T08:43:46.997Z,18.87
2018-02-17T08:46:15.246Z,16.47
2018-02-17T08:48:42.727Z,16.40
2018-02-17T08:51:11.011Z,20.30
2018-02-17T08:53:39.291Z,22.40
2018-02-17T08:56:07.539Z,25.60
2018-02-17T08:58:35.839Z,26.03
2018-02-17T09:01:04.087Z,20.53
2018-02-17T09:03:31.596Z,20.07
2018-02-17T09:05:59.117Z,24.90
2018-02-17T09:08:26.599Z,20.70
2018-02-17T09:10:54.847Z,23.13
2018-02-17T09:13:22.343Z,15.93
2018-02-17T09:15:49.887Z,17.00
2018-02-17T09:18:18.258Z,15.50
2018-02-17T09:20:45.746Z,17.23
2018-02-17T09:23:13.227Z,17.37
2018-02-17T09:25:40.707Z,16.20
2018-02-17T09:28:08.302Z,18.13
2018-02-17T09:30:36.575Z,18.60
2018-02-17T09:33:04.813Z,16.97
2018-02-17T09:35:32.309Z,15.37
2018-02-17T09:38:00.603Z,14.03
2018-02-17T09:40:28.082Z,13.83
2018-02-17T09:42:55.572Z,16.43
2018-02-17T09:45:23.054Z,18.43
2018-02-17T09:47:50.544Z,13.13
2018-02-17T09:50:18.032Z,15.47
2018-02-17T09:52:45.540Z,13.97
2018-02-17T09:55:13.770Z,14.07
2018-02-17T09:57:41.264Z,13.30
2018-02-17T10:00:08.738Z,18.63
2018-02-17T10:02:37.006Z,21.53
2018-02-17T10:05:05.272Z,17.43
2018-02-17T10:07:33.518Z,14.10
2018-02-17T10:10:01.005Z,16.03
2018-02-17T10:12:28.510Z,17.90
2018-02-17T10:14:55.993Z,14.73
2018-02-17T10:17:23.477Z,18.40
2018-02-17T10:19:51.051Z,17.37
2018-02-17T10:22:19.326Z,15.00
2018-02-17T10:24:47.570Z,16.57
2018-02-17T10:27:15.164Z,16.90
2018-02-17T10:29:43.462Z,18.37
2018-02-17T10:32:11.002Z,15.40
2018-02-17T10:34:39.254Z,15.83
2018-02-17T10:37:06.840Z,16.40
2018-02-17T10:39:35.090Z,103.37
2018-02-17T10:42:03.353Z,82.10
2018-02-17T10:44:30.831Z,23.77
2018-02-17T10:46:58.317Z,20.13
2018-02-17T10:49:26.587Z,20.80
2018-02-17T10:51:54.829Z,16.93
2018-02-17T10:54:22.313Z,19.57
2018-02-17T10:56:50.606Z,21.13
2018-02-17T10:59:18.851Z,22.77
2018-02-17T11:01:47.051Z,18.52
2018-02-17T11:04:15.326Z,21.67
2018-02-17T11:06:43.563Z,17.17
2018-02-17T11:09:11.063Z,16.77
2018-02-17T11:11:39.315Z,17.87
2018-02-17T11:14:06.895Z,16.30
2018-02-17T11:16:35.147Z,17.90
2018-02-17T11:19:02.653Z,17.07
2018-02-17T11:21:30.222Z,19.60
2018-02-17T11:23:57.754Z,20.27
2018-02-17T11:26:26.026Z,23.10
2018-02-17T11:28:54.300Z,19.33
2018-02-17T11:31:22.546Z,19.87
2018-02-17T11:33:50.044Z,20.60
2018-02-17T11:36:18.308Z,18.27
2018-02-17T11:38:46.556Z,17.80
2018-02-17T11:41:14.046Z,19.37
2018-02-17T11:43:42.290Z,17.40
2018-02-17T11:46:09.827Z,17.50
2018-02-17T11:48:37.318Z,18.40
2018-02-17T11:51:04.806Z,128.10
2018-02-17T11:53:33.081Z,18.17
2018-02-17T11:56:00.547Z,17.97
2018-02-17T11:58:28.793Z,19.40
2018-02-17T12:00:56.277Z,18.40
2018-02-17T12:03:24.563Z,17.63
2018-02-17T12:05:52.823Z,26.90
2018-02-17T12:08:21.067Z,20.70
2018-02-17T12:10:48.562Z,19.50
2018-02-17T12:13:16.815Z,17.17
2018-02-17T12:15:44.389Z,18.07
2018-02-17T12:18:12.659Z,16.40
2018-02-17T12:20:40.143Z,17.20
2018-02-17T12:23:07.619Z,16.60
2018-02-17T12:25:35.105Z,17.03
2018-02-17T12:28:02.871Z,16.70
2018-02-17T12:30:30.366Z,19.30
2018-02-17T12:32:58.639Z,17.50
2018-02-17T12:35:26.897Z,20.23
2018-02-17T12:37:54.374Z,20.47
2018-02-17T12:40:22.655Z,18.10
2018-02-17T12:42:50.900Z,19.47
2018-02-17T12:45:18.386Z,21.30
2018-02-17T12:47:46.651Z,16.43
2018-02-17T12:50:14.890Z,22.30
2018-02-17T12:52:42.366Z,21.63
2018-02-17T12:55:09.958Z,20.87
2018-02-17T12:57:38.214Z,31.00
2018-02-17T13:00:07.198Z,28.33
2018-02-17T13:02:34.687Z,25.30
2018-02-17T13:05:03.001Z,28.53
2018-02-17T13:07:30.504Z,24.13
2018-02-17T13:09:57.993Z,25.20
2018-02-17T13:12:26.244Z,26.03
2018-02-17T13:14:53.742Z,23.73
2018-02-17T13:17:21.274Z,25.70
2018-02-17T13:19:49.571Z,20.90
2018-02-17T13:22:17.823Z,19.77
2018-02-17T13:24:45.396Z,24.10
2018-02-17T13:27:13.633Z,26.60
2018-02-17T13:29:41.103Z,24.20
2018-02-17T13:32:10.106Z,24.00
2018-02-17T13:34:37.748Z,19.10
2018-02-17T13:37:05.231Z,22.87
2018-02-17T13:39:32.801Z,23.80
2018-02-17T13:42:01.051Z,21.37
2018-02-17T13:44:28.525Z,20.20
2018-02-17T13:46:56.815Z,24.27
2018-02-17T13:49:25.091Z,22.30
2018-02-17T13:51:53.339Z,20.00
2018-02-17T13:54:21.639Z,22.10
2018-02-17T13:56:49.907Z,27.03
2018-02-17T13:59:17.385Z,23.00
2018-02-17T14:01:45.630Z,18.97
2018-02-17T14:04:13.111Z,17.73
2018-02-17T14:06:41.357Z,21.37
2018-02-17T14:09:08.948Z,24.40
2018-02-17T14:11:37.218Z,24.80
2018-02-17T14:14:05.499Z,22.70
2018-02-17T14:16:32.995Z,21.50
2018-02-17T14:19:00.482Z,30.43
2018-02-17T14:21:27.954Z,46.57
2018-02-17T14:23:55.533Z,26.57
2018-02-17T14:26:23.808Z,25.43
2018-02-17T14:28:52.056Z,24.70
2018-02-17T14:31:19.647Z,19.80
2018-02-17T14:33:47.895Z,21.40
2018-02-17T14:36:15.372Z,23.70
2018-02-17T14:38:43.644Z,20.80
2018-02-17T14:41:11.124Z,20.70
2018-02-17T14:43:39.363Z,20.73
2018-02-17T14:46:06.855Z,77.97
2018-02-17T14:48:35.103Z,23.20
2018-02-17T14:51:02.581Z,21.03
2018-02-17T14:53:30.843Z,22.10
2018-02-17T14:55:58.483Z,20.30
2018-02-17T14:58:25.958Z,20.47
2018-02-17T15:00:53.447Z,20.90
2018-02-17T15:03:21.718Z,18.93
2018-02-17T15:05:49.967Z,19.07
2018-02-17T15:08:18.263Z,20.50
2018-02-17T15:10:46.538Z,18.00
2018-02-17T15:13:14.083Z,53.27
2018-02-17T15:15:41.567Z,21.17
2018-02-17T15:18:09.838Z,18.50
2018-02-17T15:20:38.106Z,20.40
2018-02-17T15:23:06.360Z,17.57
2018-02-17T15:25:33.830Z,20.63
2018-02-17T15:28:01.306Z,18.43
2018-02-17T15:30:29.562Z,17.10
2018-02-17T15:32:57.288Z,17.20
2018-02-17T15:35:24.786Z,16.40
2018-02-17T15:37:52.286Z,16.50
2018-02-17T15:40:19.759Z,17.17
2018-02-17T15:42:47.244Z,18.67
2018-02-17T15:45:14.722Z,14.90
2018-02-17T15:47:42.196Z,13.80
2018-02-17T15:50:10.441Z,15.63
2018-02-17T15:52:38.038Z,14.80
2018-02-17T15:55:06.278Z,13.37
2018-02-17T15:57:33.775Z,14.20
2018-02-17T16:00:02.032Z,13.67
2018-02-17T16:02:29.613Z,12.43
2018-02-17T16:04:57.859Z,11.53
2018-02-17T16:07:25.435Z,13.60
2018-02-17T16:09:53.691Z,13.00
2018-02-17T16:12:21.174Z,12.97
2018-02-17T16:14:49.431Z,13.93
2018-02-17T16:17:16.903Z,12.23
2018-02-17T16:19:45.142Z,11.37
2018-02-17T16:22:12.680Z,14.60
2018-02-17T16:24:40.189Z,14.27
2018-02-17T16:27:07.759Z,13.50
2018-02-17T16:29:36.040Z,13.03
2018-02-17T16:32:04.281Z,14.37
2018-02-17T16:34:31.786Z,11.90
2018-02-17T16:37:00.106Z,13.70
2018-02-17T16:39:27.610Z,9.87
2018-02-17T16:41:55.872Z,12.03
2018-02-17T16:44:23.434Z,9.57
2018-02-17T16:46:50.919Z,11.20
2018-02-17T16:49:18.466Z,13.80
2018-02-17T16:51:47.674Z,9.60
2018-02-17T16:54:15.170Z,11.67
2018-02-17T16:56:42.682Z,14.10
2018-02-17T16:59:10.984Z,13.37
2018-02-17T17:01:38.454Z,11.83
2018-02-17T17:04:05.936Z,11.23
2018-02-17T17:06:33.544Z,11.60
2018-02-17T17:09:01.792Z,12.00
2018-02-17T17:11:29.278Z,14.83
2018-02-17T17:13:57.553Z,13.60
2018-02-17T17:16:25.797Z,12.50
2018-02-17T17:18:53.385Z,11.57
2018-02-17T17:21:21.660Z,12.90
2018-02-17T17:23:49.935Z,15.33
2018-02-17T17:26:18.179Z,83.60
2018-02-17T17:28:45.675Z,16.90
2018-02-17T17:31:14.194Z,14.40
2018-02-17T17:33:41.683Z,15.30
2018-02-17T17:36:09.179Z,16.10
2018-02-17T17:38:37.422Z,16.73
2018-02-17T17:41:04.899Z,16.20
2018-02-17T17:43:32.399Z,17.70
2018-02-17T17:45:59.878Z,16.13
2018-02-17T17:48:27.382Z,19.27
2018-02-17T17:50:55.659Z,18.03
2018-02-17T17:53:23.898Z,18.57
2018-02-17T17:55:51.366Z,20.37
2018-02-17T17:58:18.869Z,20.70
2018-02-17T18:00:46.402Z,18.57
2018-02-17T18:03:13.890Z,19.27
2018-02-17T18:05:41.378Z,21.27
2018-02-17T18:08:08.878Z,20.23
2018-02-17T18:10:37.150Z,20.00
2018-02-17T18:13:06.150Z,23.70
2018-02-17T18:15:34.423Z,24.50
2018-02-17T18:18:02.701Z,23.70
2018-02-17T18:20:30.998Z,25.47
2018-02-17T18:22:59.263Z,26.87
2018-02-17T18:25:27.507Z,22.37
2018-02-17T18:27:55.018Z,25.50
2018-02-17T18:30:22.497Z,25.37
2018-02-17T18:32:49.983Z,26.10
2018-02-17T18:35:17.483Z,25.43
2018-02-17T18:37:45.739Z,27.67
2018-02-17T18:40:13.215Z,31.83
2018-02-17T18:42:41.579Z,28.50
2018-02-17T18:45:09.851Z,32.17
2018-02-17T18:47:37.423Z,30.60
2018-02-17T18:50:05.671Z,28.27
2018-02-17T18:52:33.151Z,29.37
2018-02-17T18:55:01.394Z,31.97
2018-02-17T18:57:28.881Z,30.10
2018-02-17T18:59:57.179Z,31.23
2018-02-17T19:02:24.671Z,27.37
2018-02-17T19:04:52.204Z,29.87
2018-02-17T19:07:19.642Z,28.90
2018-02-17T19:09:47.888Z,27.90
2018-02-17T19:12:15.378Z,29.07
2018-02-17T19:14:43.618Z,30.33
2018-02-17T19:17:11.101Z,31.87
2018-02-17T19:19:39.378Z,31.10
2018-02-17T19:22:06.864Z,38.60
2018-02-17T19:24:34.414Z,30.20
2018-02-17T19:27:02.673Z,34.50
2018-02-17T19:29:30.155Z,30.90
2018-02-17T19:31:57.675Z,31.13
2018-02-17T19:34:25.190Z,33.07
2018-02-17T19:36:52.711Z,34.20
2018-02-17T19:39:20.967Z,30.40
2018-02-17T19:41:49.235Z,31.70
2018-02-17T19:44:16.727Z,29.80
2018-02-17T19:46:44.975Z,30.40
2018-02-17T19:49:12.459Z,32.87
2018-02-17T19:51:40.699Z,31.87
2018-02-17T19:54:08.175Z,32.13
2018-02-17T19:56:37.173Z,30.93
2018-02-17T19:59:04.652Z,32.00
2018-02-17T20:01:32.891Z,36.50
2018-02-17T20:04:00.394Z,32.30
2018-02-17T20:06:27.874Z,35.83
2018-02-17T20:08:55.370Z,35.33
2018-02-17T20:11:22.849Z,31.67
2018-02-17T20:13:51.128Z,36.00
2018-02-17T20:16:18.594Z,43.87
2018-02-17T20:18:46.870Z,39.90
2018-02-17T20:21:15.116Z,36.10
2018-02-17T20:23:42.624Z,36.27
2018-02-17T20:26:10.168Z,35.93
2018-02-17T20:28:38.437Z,39.07
2018-02-17T20:31:06.683Z,41.40
2018-02-17T20:33:34.283Z,41.43
2018-02-17T20:36:02.528Z,35.83
2018-02-17T20:38:30.003Z,38.37
2018-02-17T20:40:57.571Z,39.13
2018-02-17T20:43:25.878Z,36.30
2018-02-17T20:45:53.299Z,37.93
2018-02-17T20:48:21.559Z,42.80
2018-02-17T20:50:50.571Z,43.90
2018-02-17T20:53:18.816Z,47.00
2018-02-17T20:55:46.407Z,43.90
2018-02-17T20:58:14.687Z,44.10
2018-02-17T21:00:42.935Z,45.13
2018-02-17T21:03:10.426Z,46.27
2018-02-17T21:05:38.694Z,41.70
2018-02-17T21:08:06.973Z,47.40
2018-02-17T21:10:35.238Z,51.03
2018-02-17T21:13:02.714Z,50.00
2018-02-17T21:15:30.997Z,51.13
2018-02-17T21:17:58.570Z,45.30
2018-02-17T21:20:26.051Z,49.10
2018-02-17T21:22:53.537Z,56.17
2018-02-17T21:25:22.536Z,51.30
2018-02-17T21:27:50.123Z,49.47
2018-02-17T21:30:18.369Z,46.77
2018-02-17T21:32:45.867Z,53.70
2018-02-17T21:35:13.351Z,52.90
2018-02-17T21:37:40.841Z,50.97
2018-02-17T21:40:08.327Z,49.57
2018-02-17T21:42:36.600Z,49.03
2018-02-17T21:45:04.867Z,54.97
2018-02-17T21:47:32.367Z,54.33
2018-02-17T21:49:59.839Z,55.10
2018-02-17T21:52:27.352Z,55.80
2018-02-17T21:54:55.674Z,53.23
2018-02-17T21:57:23.138Z,58.07
2018-02-17T21:59:50.625Z,49.50
2018-02-17T22:02:18.118Z,60.50
2018-02-17T22:04:46.359Z,57.60
2018-02-17T22:07:13.874Z,54.67
2018-02-17T22:09:41.362Z,53.77
2018-02-17T22:12:08.840Z,56.53
2018-02-17T22:14:36.326Z,52.40
2018-02-17T22:17:04.624Z,59.47
2018-02-17T22:19:32.105Z,60.40
2018-02-17T22:21:59.594Z,56.77
2018-02-17T22:24:27.180Z,56.97
2018-02-17T22:26:56.238Z,56.25
2018-02-17T22:29:23.715Z,54.43
2018-02-17T22:31:51.382Z,60.53
2018-02-17T22:34:19.634Z,58.77
2018-02-17T22:36:47.116Z,57.00
2018-02-17T22:39:15.401Z,60.17
2018-02-17T22:41:43.674Z,60.43
2018-02-17T22:44:11.953Z,60.37
2018-02-17T22:46:40.209Z,57.50
2018-02-17T22:49:08.534Z,61.40
2018-02-17T22:51:36.067Z,58.77
2018-02-17T22:54:04.319Z,51.80
2018-02-17T22:56:31.899Z,65.70
2018-02-17T22:59:00.223Z,63.50
2018-02-17T23:01:27.715Z,63.73
2018-02-17T23:03:55.974Z,56.90
2018-02-17T23:06:23.464Z,56.87
2018-02-17T23:08:50.954Z,61.10
2018-02-17T23:11:18.491Z,55.90
2018-02-17T23:13:46.764Z,56.97
2018-02-17T23:16:15.046Z,62.13
2018-02-17T23:18:43.294Z,62.47
2018-02-17T23:21:11.534Z,60.77
2018-02-17T23:23:39.021Z,61.87
2018-02-17T23:26:06.496Z,62.03
2018-02-17T23:28:35.514Z,57.67
2018-02-17T23:31:03.791Z,58.87
2018-02-17T23:33:32.064Z,68.90
2018-02-17T23:36:00.337Z,66.87
2018-02-17T23:38:28.611Z,57.93
2018-02-17T23:40:56.853Z,60.97
2018-02-17T23:43:25.115Z,61.10
2018-02-17T23:45:52.615Z,60.67
2018-02-17T23:48:20.859Z,63.77
2018-02-17T23:50:48.341Z,58.20
2018-02-17T23:53:15.822Z,55.57
2018-02-17T23:55:44.072Z,61.63
2018-02-17T23:58:11.556Z,51.43
